Time;durP1;ratioP1;P1;durP2;ratioP2;P2;SDS_P1;SDS_P2;PMS_P1;PMS_P2;Temp;Humidity;BMP_temperature;BMP_pressure;BME280_temperature;BME280_humidity;BME280_pressure;Samples;Min_cycle;Max_cycle;Signal;HPM_P1;HPM_P2
2023/10/25 00:01:41;;;;;;;1.10;1.10;;;;;;;13.28;84.70;96532.31;5024036;28;20049;-61
2023/10/25 00:04:08;;;;;;;1.10;1.10;;;;;;;13.66;84.66;96575.13;5023792;28;20132;-61
2023/10/25 00:06:35;;;;;;;1.00;1.00;;;;;;;13.55;84.89;96563.25;5006168;28;20049;-61
2023/10/25 00:09:02;;;;;;;1.10;1.10;;;;;;;13.55;85.94;96568.81;5023653;28;20049;-61
2023/10/25 00:11:29;;;;;;;1.10;1.10;;;;;;;13.54;86.02;96551.34;5023953;28;20435;-61
2023/10/25 00:13:55;;;;;;;1.05;1.05;;;;;;;13.79;86.05;96567.16;5006261;28;20055;-61
2023/10/25 00:16:22;;;;;;;1.10;1.10;;;;;;;13.89;85.76;96560.75;5006244;28;20050;-61
2023/10/25 00:18:49;;;;;;;1.17;1.17;;;;;;;13.90;85.86;96540.06;5005965;28;20058;-60
2023/10/25 00:21:16;;;;;;;1.10;1.10;;;;;;;13.79;85.88;96528.19;5023970;28;20471;-61
2023/10/25 00:23:42;;;;;;;1.10;1.10;;;;;;;13.86;86.52;96539.28;5023850;28;20063;-61
2023/10/25 00:26:10;;;;;;;1.10;1.10;;;;;;;13.83;86.20;96515.06;5024011;28;20061;-61
2023/10/25 00:28:38;;;;;;;1.00;1.00;;;;;;;14.00;86.59;96533.66;5027356;28;20046;-60
2023/10/25 00:31:04;;;;;;;1.00;1.00;;;;;;;14.04;86.35;96524.09;5026062;28;20049;-60
2023/10/25 00:33:31;;;;;;;1.13;1.13;;;;;;;14.11;86.89;96521.28;5027793;28;20132;-61
2023/10/25 00:35:58;;;;;;;1.10;1.10;;;;;;;14.13;86.66;96534.81;5027428;28;20421;-61
2023/10/25 00:38:25;;;;;;;1.10;1.10;;;;;;;14.04;83.84;96534.44;5027161;28;20054;-62
2023/10/25 00:40:52;;;;;;;1.10;1.10;;;;;;;13.96;82.18;96544.03;5027353;28;20049;-61
2023/10/25 00:43:20;;;;;;;1.10;1.10;;;;;;;13.47;83.61;96537.44;5026889;28;20494;-61
2023/10/25 00:46:01;;;;;;;1.10;1.10;;;;;;;13.50;83.87;96533.84;5027021;28;20061;-61
2023/10/25 00:48:29;;;;;;;1.00;1.00;;;;;;;13.24;83.87;96472.31;5027074;28;20135;-61
2023/10/25 00:50:56;;;;;;;1.10;1.10;;;;;;;13.40;83.30;96490.13;5008788;28;20054;-61
2023/10/25 00:53:24;;;;;;;1.15;1.15;;;;;;;13.47;83.36;96503.25;5026371;28;20057;-61
2023/10/25 00:55:54;;;;;;;1.00;1.00;;;;;;;12.25;88.31;96527.06;5009089;28;20049;-61
2023/10/25 00:58:22;;;;;;;1.00;1.00;;;;;;;12.39;89.38;96540.22;5025628;28;20167;-61
2023/10/25 01:00:50;;;;;;;1.00;1.00;;;;;;;12.42;88.87;96537.44;5025165;28;20045;-61
2023/10/25 01:03:18;;;;;;;1.00;1.00;;;;;;;12.61;87.89;96525.97;5027148;28;20060;-61
2023/10/25 01:05:44;;;;;;;1.00;1.00;;;;;;;12.64;88.09;96536.28;5026787;28;20432;-61
2023/10/25 01:08:11;;;;;;;0.90;0.90;;;;;;;12.67;88.81;96524.38;5026486;28;20512;-61
2023/10/25 01:10:38;;;;;;;1.20;1.20;;;;;;;12.75;91.38;96520.41;5026780;28;20057;-62
2023/10/25 01:13:05;;;;;;;1.00;1.00;;;;;;;12.90;93.00;96530.31;5015403;28;20859;-62
2023/10/25 01:15:32;;;;;;;0.90;0.90;;;;;;;12.78;93.59;96504.91;5006870;28;20839;-61
2023/10/25 01:17:59;;;;;;;1.00;1.00;;;;;;;12.98;93.38;96514.44;5006869;28;20050;-61
2023/10/25 01:20:26;;;;;;;1.00;1.00;;;;;;;12.75;92.22;96448.16;5006683;28;20085;-61
2023/10/25 01:22:52;;;;;;;1.10;1.10;;;;;;;13.17;91.37;96511.25;5006854;28;20052;-61
2023/10/25 01:25:19;;;;;;;1.10;1.10;;;;;;;13.28;89.49;96526.75;5006110;28;20053;-61
2023/10/25 01:27:46;;;;;;;1.00;1.00;;;;;;;12.94;88.09;96466.38;5006852;28;20049;-61
2023/10/25 01:30:13;;;;;;;1.00;1.00;;;;;;;13.27;89.83;96514.03;5005031;28;20065;-61
2023/10/25 01:32:40;;;;;;;1.10;1.10;;;;;;;13.27;88.63;96511.25;5006462;28;20046;-61
2023/10/25 01:35:07;;;;;;;1.00;1.00;;;;;;;13.32;86.69;96574.81;5006352;28;20054;-61
2023/10/25 01:37:34;;;;;;;1.02;1.02;;;;;;;13.36;85.02;96505.25;5005512;28;20078;-61
2023/10/25 01:40:03;;;;;;;1.10;1.10;;;;;;;13.16;84.89;96502.13;5006025;28;20045;-60
2023/10/25 01:42:29;;;;;;;1.00;1.00;;;;;;;12.98;86.30;96492.97;5006336;28;20176;-61
2023/10/25 01:44:56;;;;;;;1.10;1.10;;;;;;;12.89;86.58;96484.28;5006132;28;20603;-61
2023/10/25 01:47:23;;;;;;;1.00;1.00;;;;;;;12.92;86.69;96468.75;5006412;28;20103;-61
2023/10/25 01:49:50;;;;;;;1.00;1.00;;;;;;;12.67;87.37;96452.13;5005834;28;20081;-61
2023/10/25 01:52:16;;;;;;;1.00;1.00;;;;;;;12.96;87.47;96478.69;5006452;28;20052;-60
2023/10/25 01:54:45;;;;;;;1.00;1.00;;;;;;;12.55;87.54;96432.28;5006079;28;20046;-60
2023/10/25 01:57:12;;;;;;;1.00;1.00;;;;;;;12.92;87.16;96499.34;5009775;28;20045;-61
2023/10/25 01:59:40;;;;;;;1.00;1.00;;;;;;;12.53;87.37;96424.34;5025422;28;20050;-61
2023/10/25 02:02:07;;;;;;;1.05;1.05;;;;;;;12.90;87.63;96460.81;5025693;28;20049;-61
2023/10/25 02:04:34;;;;;;;1.00;1.00;;;;;;;12.83;87.37;96444.19;5025713;28;20050;-61
2023/10/25 02:07:02;;;;;;;1.02;1.02;;;;;;;12.89;87.63;96467.59;5025723;28;20119;-61
2023/10/25 02:09:29;;;;;;;0.90;0.90;;;;;;;11.99;93.04;96478.25;5025377;28;20052;-61
2023/10/25 02:11:56;;;;;;;0.90;0.90;;;;;;;11.91;94.97;96486.94;5025586;28;20077;-61
2023/10/25 02:14:23;;;;;;;1.00;1.00;;;;;;;12.12;93.59;96454.47;5025416;28;20238;-61
2023/10/25 02:16:50;;;;;;;0.98;0.98;;;;;;;12.45;92.62;96472.78;5025371;28;20420;-60
2023/10/25 02:19:17;;;;;;;1.00;1.00;;;;;;;12.65;91.17;96476.72;5025329;28;20049;-61
2023/10/25 02:21:45;;;;;;;1.00;1.00;;;;;;;12.71;90.29;96486.25;5007548;28;20049;-61
2023/10/25 02:24:14;;;;;;;0.95;0.95;;;;;;;12.72;89.78;96460.06;5025209;28;20092;-62
2023/10/25 02:26:41;;;;;;;1.00;1.00;;;;;;;12.91;88.30;96468.00;5024796;28;20057;-62
2023/10/25 02:29:08;;;;;;;1.00;1.00;;;;;;;12.79;88.57;96446.16;5025150;28;20061;-62
2023/10/25 02:31:36;;;;;;;1.10;1.10;;;;;;;12.96;88.82;96475.91;5025643;28;20487;-61
2023/10/25 02:34:04;;;;;;;1.00;1.00;;;;;;;12.66;89.70;96458.84;5025368;28;20053;-61
2023/10/25 02:36:31;;;;;;;1.02;1.02;;;;;;;12.66;91.77;96471.97;5007396;28;20056;-61
2023/10/25 02:38:58;;;;;;;1.00;1.00;;;;;;;12.61;91.13;96437.06;5024506;28;20534;-61
2023/10/25 02:41:25;;;;;;;1.00;1.00;;;;;;;12.99;91.49;96463.97;5024887;28;20059;-61
2023/10/25 02:43:53;;;;;;;1.10;1.10;;;;;;;13.12;91.66;96462.41;5024524;28;20508;-61
2023/10/25 02:46:20;;;;;;;1.10;1.10;;;;;;;13.24;91.46;96473.13;5007230;28;20492;-61
2023/10/25 02:48:47;;;;;;;1.00;1.00;;;;;;;12.98;89.86;96450.47;5024102;28;20061;-61
2023/10/25 02:51:14;;;;;;;1.02;1.02;;;;;;;12.71;90.32;96441.00;5013611;28;20061;-61
2023/10/25 02:53:41;;;;;;;1.00;1.00;;;;;;;13.14;90.71;96492.59;5024104;28;20056;-62
2023/10/25 02:56:08;;;;;;;1.10;1.10;;;;;;;12.60;90.48;96391.00;5024269;28;20488;-61
2023/10/25 02:58:35;;;;;;;1.00;1.00;;;;;;;13.23;91.08;96493.00;5024379;28;20136;-61
2023/10/25 03:01:02;;;;;;;1.00;1.00;;;;;;;12.98;89.90;96425.47;5024506;28;20053;-61
2023/10/25 03:03:34;;;;;;;1.08;1.08;;;;;;;13.39;89.79;96483.00;5024718;28;20100;-61
2023/10/25 03:06:01;;;;;;;1.10;1.10;;;;;;;13.03;89.37;96420.34;5024560;28;20056;-61
2023/10/25 03:08:28;;;;;;;1.08;1.08;;;;;;;12.98;89.05;96423.47;5007273;28;20128;-60
2023/10/25 03:10:56;;;;;;;1.10;1.10;;;;;;;13.33;87.21;96467.91;5024117;28;20050;-60
2023/10/25 03:13:22;;;;;;;1.10;1.10;;;;;;;13.35;85.38;96464.72;5024192;28;20049;-60
2023/10/25 03:15:49;;;;;;;1.00;1.00;;;;;;;13.06;85.13;96436.22;5006081;28;20717;-60
2023/10/25 03:18:16;;;;;;;0.93;0.93;;;;;;;12.73;86.15;96428.28;5024195;28;20543;-61
2023/10/25 03:20:43;;;;;;;1.10;1.10;;;;;;;13.02;87.13;96456.88;5024095;28;20053;-60
2023/10/25 03:23:10;;;;;;;1.10;1.10;;;;;;;13.01;89.67;96439.41;4994742;28;20050;-60
2023/10/25 03:25:36;;;;;;;1.10;1.10;;;;;;;13.08;87.22;96475.53;5003917;28;20054;-60
2023/10/25 03:28:03;;;;;;;0.93;0.93;;;;;;;12.50;87.55;96414.03;5004391;28;20065;-59
2023/10/25 03:30:30;;;;;;;1.02;1.02;;;;;;;12.51;88.07;96487.03;5004122;28;20492;-61
2023/10/25 03:32:57;;;;;;;1.00;1.00;;;;;;;12.61;87.92;96484.28;5004346;28;20078;-60
2023/10/25 03:35:26;;;;;;;0.95;0.95;;;;;;;12.64;87.51;96474.34;5003990;28;20551;-60
2023/10/25 03:37:53;;;;;;;0.90;0.90;;;;;;;11.81;88.35;96360.06;5004197;28;20054;-60
2023/10/25 03:40:19;;;;;;;0.95;0.95;;;;;;;12.51;89.39;96482.28;5004075;28;20050;-60
2023/10/25 03:42:46;;;;;;;0.90;0.90;;;;;;;12.63;89.34;96484.66;5004074;28;20065;-60
2023/10/25 03:45:13;;;;;;;0.90;0.90;;;;;;;12.51;89.32;96437.03;5003550;28;20057;-60
2023/10/25 03:47:39;;;;;;;1.00;1.00;;;;;;;12.71;89.77;96452.91;5003469;28;20061;-60
2023/10/25 03:50:07;;;;;;;1.10;1.10;;;;;;;12.81;89.35;96457.66;4986561;28;20053;-61
2023/10/25 03:52:34;;;;;;;1.08;1.08;;;;;;;12.44;89.19;96396.16;5004079;28;20085;-61
2023/10/25 03:55:00;;;;;;;1.00;1.00;;;;;;;11.98;93.42;96443.34;5004181;28;20048;-60
2023/10/25 03:57:28;;;;;;;1.05;1.05;;;;;;;12.13;92.01;96450.53;5003675;28;20078;-61
2023/10/25 03:59:55;;;;;;;0.90;0.90;;;;;;;12.24;93.16;96439.41;5005447;28;20057;-61
2023/10/25 04:02:21;;;;;;;1.00;1.00;;;;;;;12.39;96.56;96438.25;5008295;28;20508;-61
2023/10/25 04:04:48;;;;;;;1.00;1.00;;;;;;;12.50;97.64;96452.94;5007922;28;20144;-60
2023/10/25 04:07:15;;;;;;;1.00;1.00;;;;;;;12.66;97.52;96464.41;5008079;28;20057;-62
2023/10/25 04:09:42;;;;;;;1.00;1.00;;;;;;;12.33;96.50;96392.59;5007946;28;20157;-62
2023/10/25 04:12:12;;;;;;;0.95;0.95;;;;;;;12.82;95.60;96447.34;4990310;28;20085;-59
2023/10/25 04:14:44;;;;;;;1.00;1.00;;;;;;;12.93;94.06;96435.00;5007551;28;20554;-60
2023/10/25 04:17:11;;;;;;;1.00;1.00;;;;;;;12.97;93.22;96427.47;5008274;28;20053;-60
2023/10/25 04:19:40;;;;;;;1.00;1.00;;;;;;;12.60;93.46;96416.00;4989874;28;20049;-61
2023/10/25 04:22:07;;;;;;;1.08;1.08;;;;;;;12.73;94.16;96417.19;4990131;28;20338;-60
2023/10/25 04:24:34;;;;;;;1.02;1.02;;;;;;;12.84;92.50;96411.59;5007991;28;20049;-61
2023/10/25 04:27:01;;;;;;;1.00;1.00;;;;;;;12.87;92.56;96419.94;5007122;28;20691;-61
2023/10/25 04:29:29;;;;;;;1.10;1.10;;;;;;;12.60;90.49;96349.31;4990246;28;20332;-61
2023/10/25 04:31:56;;;;;;;1.10;1.10;;;;;;;13.09;90.69;96415.94;5007702;28;20058;-61
2023/10/25 04:34:23;;;;;;;1.10;1.10;;;;;;;13.17;90.84;96419.47;4990090;28;20158;-61
2023/10/25 04:36:49;;;;;;;1.10;1.10;;;;;;;13.26;89.97;96417.09;5007618;28;20064;-60
2023/10/25 04:39:16;;;;;;;1.05;1.05;;;;;;;13.06;90.13;96402.03;4989697;28;20505;-61
2023/10/25 04:41:43;;;;;;;1.13;1.13;;;;;;;12.87;90.23;96349.66;5007575;28;20056;-61
2023/10/25 04:44:10;;;;;;;0.95;0.95;;;;;;;13.11;92.15;96399.66;5006921;28;20060;-60
2023/10/25 04:46:36;;;;;;;1.00;1.00;;;;;;;13.20;91.79;96402.78;5006860;28;20460;-60
2023/10/25 04:49:04;;;;;;;1.00;1.00;;;;;;;13.22;91.02;96378.16;4989649;28;20056;-62
2023/10/25 04:51:31;;;;;;;1.15;1.15;;;;;;;13.40;92.80;96401.13;5006867;28;20107;-60
2023/10/25 04:53:58;;;;;;;1.00;1.00;;;;;;;13.39;91.58;96402.31;4998505;28;20050;-61
2023/10/25 04:56:24;;;;;;;1.00;1.00;;;;;;;13.43;90.69;96388.41;4987479;28;20046;-61
2023/10/25 04:58:51;;;;;;;1.00;1.00;;;;;;;13.42;91.18;96393.16;5002854;28;20053;-62
2023/10/25 05:01:18;;;;;;;1.05;1.05;;;;;;;13.56;89.56;96387.53;5007388;28;20046;-61
2023/10/25 05:03:45;;;;;;;1.00;1.00;;;;;;;13.42;89.07;96370.91;4995001;28;20054;-62
2023/10/25 05:06:13;;;;;;;1.20;1.20;;;;;;;13.14;88.98;96318.19;4987247;28;20050;-62
2023/10/25 05:08:40;;;;;;;1.17;1.17;;;;;;;13.53;89.16;96382.78;4987513;28;20053;-62
2023/10/25 05:11:07;;;;;;;1.08;1.08;;;;;;;13.55;88.30;96391.53;4986015;28;20058;-61
2023/10/25 05:13:34;;;;;;;1.10;1.10;;;;;;;13.10;87.57;96303.50;4987417;28;20169;-61
2023/10/25 05:16:04;;;;;;;1.10;1.10;;;;;;;13.79;86.93;96394.56;4987023;28;20058;-62
2023/10/25 05:18:31;;;;;;;1.00;1.00;;;;;;;13.50;87.35;96389.16;4987278;28;20058;-62
2023/10/25 05:21:02;;;;;;;1.10;1.10;;;;;;;13.42;88.28;96404.28;4987131;28;20065;-62
2023/10/25 05:23:31;;;;;;;1.10;1.10;;;;;;;13.07;89.55;96407.19;4987251;28;20058;-62
2023/10/25 05:26:00;;;;;;;1.00;1.00;;;;;;;13.00;90.94;96393.34;4984870;28;20056;-62
2023/10/25 05:28:29;;;;;;;1.10;1.10;;;;;;;13.36;89.11;96397.56;4986349;28;20058;-62
2023/10/25 05:31:01;;;;;;;1.10;1.10;;;;;;;13.50;88.61;96389.16;4985977;28;20054;-62
2023/10/25 05:33:31;;;;;;;1.15;1.15;;;;;;;13.02;88.32;96307.53;4986330;28;20612;-61
2023/10/25 05:36:00;;;;;;;1.10;1.10;;;;;;;13.76;88.84;96409.28;4985977;28;20050;-61
2023/10/25 05:38:27;;;;;;;1.10;1.10;;;;;;;14.03;87.33;96421.47;4985867;28;20050;-61
2023/10/25 05:40:54;;;;;;;1.10;1.10;;;;;;;14.15;87.78;96423.75;4986048;28;20046;-62
2023/10/25 05:43:28;;;;;;;1.10;1.10;;;;;;;14.16;87.62;96389.94;4986091;28;20047;-61
2023/10/25 05:45:56;;;;;;;1.30;1.30;;;;;;;14.14;89.24;96394.31;4986830;28;20054;-61
2023/10/25 05:48:23;;;;;;;1.20;1.20;;;;;;;14.27;89.73;96414.97;4986392;28;20421;-61
2023/10/25 05:50:50;;;;;;;1.20;1.20;;;;;;;14.45;89.06;96415.59;4986420;28;20576;-61
2023/10/25 05:53:18;;;;;;;1.17;1.17;;;;;;;14.61;88.11;96425.03;4986084;28;20500;-61
2023/10/25 05:55:46;;;;;;;1.20;1.20;;;;;;;14.58;88.35;96413.91;4984791;28;20421;-61
2023/10/25 05:58:13;;;;;;;1.10;1.10;;;;;;;14.64;88.46;96412.25;4993250;28;20528;-62
2023/10/25 06:00:46;;;;;;;1.13;1.13;;;;;;;14.90;87.51;96419.97;5005695;28;20136;-62
2023/10/25 06:03:16;;;;;;;1.40;1.40;;;;;;;14.94;85.72;96417.94;5005555;28;20086;-61
2023/10/25 06:06:00;;;;;;;1.30;1.30;;;;;;;14.87;85.71;96420.81;5002758;28;20564;-64
2023/10/25 06:08:28;;;;;;;1.30;1.30;;;;;;;14.27;84.92;96309.09;5003723;28;20445;-59
2023/10/25 06:10:55;;;;;;;1.20;1.20;;;;;;;14.62;84.29;96415.44;4999262;28;20057;-58
2023/10/25 06:13:22;;;;;;;1.20;1.20;;;;;;;14.79;83.10;96424.88;4985354;28;20529;-56
2023/10/25 06:15:49;;;;;;;1.35;1.35;;;;;;;14.02;82.06;96291.78;4994056;28;20132;-57
2023/10/25 06:18:16;;;;;;;1.20;1.20;;;;;;;14.85;81.94;96428.78;5003428;28;20050;-64
2023/10/25 06:20:42;;;;;;;1.30;1.30;;;;;;;14.87;81.69;96434.75;5005031;28;20061;-56
2023/10/25 06:23:09;;;;;;;1.30;1.30;;;;;;;14.58;82.61;96434.22;5000759;28;20053;-70
2023/10/25 06:25:36;;;;;;;1.10;1.10;;;;;;;14.52;84.05;96432.28;4978836;28;20062;-56
2023/10/25 06:28:03;;;;;;;1.30;1.30;;;;;;;14.68;83.64;96424.19;5003920;28;20563;-56
2023/10/25 06:30:30;;;;;;;1.40;1.40;;;;;;;14.80;83.31;96426.44;4985623;28;20067;-64
2023/10/25 06:32:58;;;;;;;1.30;1.30;;;;;;;14.65;82.92;96391.56;5004655;28;20075;-56
2023/10/25 06:35:25;;;;;;;1.20;1.20;;;;;;;15.14;81.70;96410.56;5002780;28;20081;-57
2023/10/25 06:37:52;;;;;;;1.20;1.20;;;;;;;15.26;81.78;96404.44;5004207;28;20054;-64
2023/10/25 06:40:20;;;;;;;1.13;1.13;;;;;;;15.32;80.34;96408.34;5003671;28;20054;-64
2023/10/25 06:42:47;;;;;;;1.20;1.20;;;;;;;14.97;80.79;96405.94;5004824;28;20045;-55
2023/10/25 06:45:17;;;;;;;1.30;1.30;;;;;;;14.95;80.38;96400.00;4828760;28;5003246;-55
2023/10/25 06:47:44;;;;;;;1.30;1.30;;;;;;;14.62;81.38;96353.34;4974013;28;20053;-56
2023/10/25 06:50:14;;;;;;;1.30;1.30;;;;;;;15.16;81.27;96416.50;5004412;28;20053;-55
2023/10/25 06:52:41;;;;;;;1.30;1.30;;;;;;;15.43;80.88;96420.22;4967557;28;20057;-56
2023/10/25 06:55:09;;;;;;;1.33;1.33;;;;;;;15.57;81.11;96425.63;4984560;28;20141;-59
2023/10/25 06:57:36;;;;;;;1.20;1.20;;;;;;;15.70;81.97;96411.91;5012515;28;20100;-57
2023/10/25 07:00:08;;;;;;;1.42;1.42;;;;;;;15.76;81.66;96399.84;5004156;28;20069;-57
2023/10/25 07:02:51;;;;;;;1.33;1.33;;;;;;;15.82;82.29;96420.50;5002606;28;20052;-59
2023/10/25 07:05:20;;;;;;;1.40;1.40;;;;;;;15.93;82.38;96415.56;5001027;28;20497;-62
2023/10/25 07:07:50;;;;;;;1.30;1.30;;;;;;;15.28;82.45;96312.75;4985432;28;20057;-61
2023/10/25 07:10:18;;;;;;;1.40;1.40;;;;;;;15.85;81.79;96363.84;5004073;28;20151;-57
2023/10/25 07:12:46;;;;;;;1.70;1.70;;;;;;;16.12;81.64;96389.75;5017893;28;20066;-56
2023/10/25 07:15:13;;;;;;;1.60;1.60;;;;;;;16.29;81.55;96404.66;4991958;28;20057;-61
2023/10/25 07:17:41;;;;;;;1.45;1.45;;;;;;;16.49;80.44;96391.59;5017168;28;20052;-61
2023/10/25 07:20:10;;;;;;;1.40;1.40;;;;;;;16.53;80.29;96404.28;4986782;28;20077;-58
2023/10/25 07:22:38;;;;;;;1.50;1.50;;;;;;;16.37;80.51;96395.75;5003977;28;20050;-62
2023/10/25 07:25:05;;;;;;;1.50;1.50;;;;;;;16.28;80.01;96392.69;5003894;28;20072;-62
2023/10/25 07:27:32;;;;;;;1.60;1.60;;;;;;;16.25;79.24;96376.78;5003887;28;20065;-60
2023/10/25 07:29:59;;;;;;;1.80;1.80;;;;;;;16.51;79.18;96400.34;4985989;28;20057;-60
2023/10/25 07:32:26;;;;;;;1.65;1.65;;;;;;;16.63;78.50;96407.34;4983100;28;20053;-62
2023/10/25 07:34:53;;;;;;;1.70;1.70;;;;;;;16.57;78.14;96371.50;5002850;28;20041;-57
2023/10/25 07:37:19;;;;;;;1.75;1.75;;;;;;;16.84;77.26;96395.78;5002116;28;20583;-57
2023/10/25 07:39:46;;;;;;;1.70;1.70;;;;;;;16.90;77.13;96388.50;5003556;28;20050;-60
2023/10/25 07:42:13;;;;;;;1.63;1.63;;;;;;;16.93;77.09;96390.44;5003591;28;20057;-62
2023/10/25 07:44:40;;;;;;;1.80;1.80;;;;;;;16.58;77.20;96331.13;5003945;28;20429;-61
2023/10/25 07:47:07;;;;;;;1.80;1.80;;;;;;;17.03;76.78;96389.44;5003511;28;20057;-56
2023/10/25 07:49:35;;;;;;;2.00;2.00;;;;;;;17.21;76.11;96398.31;5002854;28;20121;-62
2023/10/25 07:52:02;;;;;;;1.60;1.60;;;;;;;17.05;77.24;96387.00;5003812;28;20050;-62
2023/10/25 07:54:29;;;;;;;1.67;1.67;;;;;;;17.10;77.47;96383.72;5003273;28;20181;-57
2023/10/25 07:56:56;;;;;;;1.73;1.73;;;;;;;17.54;76.95;96383.28;5002983;28;20141;-60
2023/10/25 07:59:25;;;;;;;1.60;1.60;;;;;;;17.87;75.30;96385.75;4995736;28;20531;-62
2023/10/25 08:01:52;;;;;;;1.80;1.80;;;;;;;17.96;73.71;96387.94;5002961;28;20894;-59
2023/10/25 08:04:19;;;;;;;2.00;2.00;;;;;;;18.30;72.20;96379.97;4985797;28;20563;-54
2023/10/25 08:06:46;;;;;;;1.80;1.80;;;;;;;18.07;71.27;96343.66;5002715;28;20819;-62
2023/10/25 08:09:12;;;;;;;2.00;2.00;;;;;;;17.75;72.70;96349.97;5001530;28;20155;-55
2023/10/25 08:11:39;;;;;;;1.77;1.77;;;;;;;18.26;71.83;96379.25;5002882;28;20050;-60
2023/10/25 08:14:06;;;;;;;1.60;1.60;;;;;;;17.68;72.15;96304.53;5003284;28;20476;-56
2023/10/25 08:16:38;;;;;;;1.60;1.60;;;;;;;18.22;72.35;96386.16;5002308;28;20045;-54
2023/10/25 08:19:07;;;;;;;1.85;1.85;;;;;;;16.37;71.94;96053.97;5002615;28;20054;-61
2023/10/25 08:21:35;;;;;;;1.65;1.65;;;;;;;18.76;71.31;96387.28;5003060;28;20056;-62
2023/10/25 08:24:05;;;;;;;2.10;2.10;;;;;;;19.12;70.47;96383.09;5002893;28;20552;-52
2023/10/25 08:26:37;;;;;;;1.75;1.75;;;;;;;19.44;69.47;96391.44;5002046;28;20080;-60
2023/10/25 08:29:05;;;;;;;1.98;1.98;;;;;;;19.41;67.87;96386.72;5000157;28;20051;-54
2023/10/25 08:31:33;;;;;;;1.70;1.70;;;;;;;19.63;66.86;96402.97;5000971;28;20384;-63
2023/10/25 08:34:00;;;;;;;2.20;2.20;;;;;;;17.72;66.07;96055.94;5001023;28;20410;-68
2023/10/25 08:36:29;;;;;;;1.90;1.90;;;;;;;19.79;66.07;96343.91;5003287;28;20056;-54
2023/10/25 08:38:55;;;;;;;2.00;2.00;;;;;;;20.24;65.44;96381.88;5003225;28;20053;-61
2023/10/25 08:41:26;;;;;;;2.20;2.20;;;;;;;20.58;65.13;96389.63;5002872;28;20058;-62
2023/10/25 08:43:54;;;;;;;2.10;2.10;;;;;;;20.59;62.78;96363.06;5001030;28;20409;-56
2023/10/25 08:46:22;;;;;;;2.22;2.22;;;;;;;20.53;62.18;96319.84;5003702;28;20512;-54
2023/10/25 08:48:52;;;;;;;2.00;2.00;;;;;;;21.01;61.56;96372.91;5006281;28;20094;-57
2023/10/25 08:51:19;;;;;;;2.47;2.38;;;;;;;21.23;60.83;96392.69;5005388;28;20045;-60
2023/10/25 08:53:47;;;;;;;2.33;2.30;;;;;;;21.32;60.53;96393.56;5005055;28;20058;-55
2023/10/25 08:56:17;;;;;;;2.20;2.20;;;;;;;21.02;60.36;96327.38;5005398;28;20591;-54
2023/10/25 08:58:44;;;;;;;2.45;2.38;;;;;;;21.67;59.72;96386.59;5003093;28;20072;-56
2023/10/25 09:01:11;;;;;;;2.50;2.40;;;;;;;21.69;58.74;96374.88;5014436;28;20034;-54
2023/10/25 09:03:40;;;;;;;2.40;2.30;;;;;;;20.46;58.86;96162.50;5004708;28;20050;-61
2023/10/25 09:06:08;;;;;;;2.60;2.50;;;;;;;21.96;58.36;96381.50;5018747;28;20508;-62
2023/10/25 09:08:37;;;;;;;2.63;2.53;;;;;;;21.99;57.80;96372.13;4983466;28;20112;-54
2023/10/25 09:11:11;;;;;;;2.40;2.30;;;;;;;22.23;57.57;96390.13;5003780;28;20125;-53
2023/10/25 09:13:43;;;;;;;2.63;2.53;;;;;;;22.39;57.61;96381.44;5002886;28;20128;-55
2023/10/25 09:16:11;;;;;;;2.25;2.25;;;;;;;22.55;56.79;96376.81;5003134;28;20078;-53
2023/10/25 09:18:40;;;;;;;2.60;2.50;;;;;;;22.56;56.27;96379.16;4997155;28;20072;-63
2023/10/25 09:21:10;;;;;;;2.20;2.20;;;;;;;21.72;58.62;96376.78;4994842;28;20505;-55
2023/10/25 09:23:39;;;;;;;2.47;2.38;;;;;;;21.87;58.54;96356.09;4987743;28;20448;-54
2023/10/25 09:26:16;;;;;;;2.70;2.60;;;;;;;22.25;57.10;96359.44;5005109;28;20520;-62
2023/10/25 09:28:47;;;;;;;2.58;2.47;;;;;;;22.55;56.55;96365.50;5005521;28;20089;-56
2023/10/25 09:31:26;;;;;;;2.60;2.50;;;;;;;22.48;55.92;96329.09;5004800;28;20050;-61
2023/10/25 09:33:58;;;;;;;2.67;2.58;;;;;;;23.10;55.14;96341.78;5005507;28;20062;-55
2023/10/25 09:36:26;;;;;;;2.70;2.60;;;;;;;22.97;54.31;96279.00;4986429;28;20413;-62
2023/10/25 09:38:54;;;;;;;2.70;2.60;;;;;;;23.54;53.17;96328.94;5005198;28;20564;-53
2023/10/25 09:41:23;;;;;;;3.10;3.00;;;;;;;24.10;52.22;96349.00;5002574;28;20141;-62
2023/10/25 09:43:51;;;;;;;3.03;2.92;;;;;;;22.89;53.38;96221.25;5005891;28;20108;-55
2023/10/25 09:46:21;;;;;;;3.13;3.03;;;;;;;23.42;52.33;96223.25;5005296;28;20081;-61
2023/10/25 09:48:58;;;;;;;2.85;2.75;;;;;;;24.34;52.23;96313.06;5004594;28;20053;-56
2023/10/25 09:52:01;;;;;;;2.90;2.80;;;;;;;24.86;51.36;96321.00;4987648;28;20062;-55
2023/10/25 09:54:42;;;;;;;3.30;3.20;;;;;;;25.09;50.20;96300.34;5003084;28;20592;-60
2023/10/25 09:57:13;;;;;;;3.30;3.20;;;;;;;25.21;49.49;96251.09;4999018;28;20057;-56
2023/10/25 09:59:42;;;;;;;3.88;3.78;;;;;;;25.67;48.67;96299.69;4995945;28;20089;-55
2023/10/25 10:02:19;;;;;;;3.45;3.35;;;;;;;25.64;47.70;96303.50;4998778;28;20046;-62
2023/10/25 10:04:55;;;;;;;3.50;3.40;;;;;;;25.52;47.79;96295.28;5003417;28;20053;-58
2023/10/25 10:07:33;;;;;;;3.60;3.50;;;;;;;25.49;47.76;96294.22;5000125;28;20173;-61
2023/10/25 10:10:19;;;;;;;3.33;3.22;;;;;;;24.29;50.02;96293.09;4994034;28;20072;-62
2023/10/25 10:12:47;;;;;;;3.53;3.42;;;;;;;24.70;49.77;96295.09;4994018;28;20552;-63
2023/10/25 10:15:14;;;;;;;3.50;3.40;;;;;;;24.59;49.62;96281.47;5003777;28;20054;-61
2023/10/25 10:17:44;;;;;;;3.35;3.25;;;;;;;23.99;50.18;96263.81;5004065;28;20556;-56
2023/10/25 10:20:28;;;;;;;3.40;3.30;;;;;;;24.40;49.49;96282.81;5004678;28;20057;-56
2023/10/25 10:23:06;;;;;;;3.05;2.95;;;;;;;24.38;49.25;96274.00;5020123;28;20073;-56
2023/10/25 10:25:46;;;;;;;3.38;3.28;;;;;;;24.64;49.36;96258.16;5009184;28;20441;-60
2023/10/25 10:28:14;;;;;;;3.60;3.50;;;;;;;24.88;48.85;96256.09;5004609;28;20076;-58
2023/10/25 10:30:42;;;;;;;3.13;3.03;;;;;;;25.06;48.89;96244.63;5003493;28;20046;-58
2023/10/25 10:33:11;;;;;;;3.55;3.45;;;;;;;25.00;48.55;96235.25;5003469;28;20185;-61
2023/10/25 10:35:48;;;;;;;3.00;2.90;;;;;;;25.00;48.32;96240.91;4986118;28;20673;-56
2023/10/25 10:38:15;;;;;;;3.55;3.45;;;;;;;24.53;47.37;96155.91;5004550;28;20513;-62
2023/10/25 10:40:48;;;;;;;3.35;3.25;;;;;;;25.05;48.21;96236.63;4985965;28;20435;-64
2023/10/25 10:43:15;;;;;;;3.25;3.15;;;;;;;24.71;48.43;96223.81;4987004;28;20576;-66
2023/10/25 10:45:46;;;;;;;3.20;3.10;;;;;;;24.49;48.96;96234.63;5002134;28;20057;-64
2023/10/25 10:48:19;;;;;;;2.92;2.83;;;;;;;24.36;49.49;96236.91;4985032;28;20064;-57
2023/10/25 10:50:48;;;;;;;3.53;3.42;;;;;;;24.72;49.27;96231.03;5003033;28;20440;-57
2023/10/25 10:53:15;;;;;;;3.13;3.03;;;;;;;24.89;48.48;96201.00;4991075;28;20046;-57
2023/10/25 10:55:44;;;;;;;3.25;3.15;;;;;;;25.41;48.06;96224.97;4995250;28;20516;-66
2023/10/25 10:58:11;;;;;;;3.33;3.22;;;;;;;25.30;46.47;96157.47;5022361;28;20053;-62
2023/10/25 11:00:44;;;;;;;3.45;3.35;;;;;;;25.97;46.04;96204.00;5002314;28;20589;-56
2023/10/25 11:03:12;;;;;;;3.40;3.30;;;;;;;25.91;45.84;96205.97;5001752;28;20046;-65
2023/10/25 11:05:38;;;;;;;3.53;3.42;;;;;;;26.04;45.67;96186.56;5004068;28;20041;-65
2023/10/25 11:08:14;;;;;;;3.60;3.50;;;;;;;25.81;46.30;96193.16;4992168;28;20580;-65
2023/10/25 11:10:41;;;;;;;3.55;3.45;;;;;;;25.23;46.76;96191.06;5003207;28;20053;-56
2023/10/25 11:13:09;;;;;;;3.20;3.10;;;;;;;25.37;46.95;96195.22;5002640;28;20417;-67
2023/10/25 11:15:36;;;;;;;3.53;3.42;;;;;;;25.54;46.52;96182.13;5002754;28;20112;-59
2023/10/25 11:18:09;;;;;;;3.60;3.50;;;;;;;25.90;46.34;96193.03;5003895;28;20072;-61
2023/10/25 11:20:38;;;;;;;3.83;3.72;;;;;;;26.00;46.01;96186.00;5003652;28;20169;-56
2023/10/25 11:23:05;;;;;;;3.95;3.85;;;;;;;25.97;45.62;96158.59;4985380;28;20191;-60
2023/10/25 11:25:32;;;;;;;3.60;3.50;;;;;;;26.31;45.35;96172.00;5017303;28;20567;-55
2023/10/25 11:27:59;;;;;;;3.72;3.63;;;;;;;26.42;44.75;96169.31;5002037;28;20049;-63
2023/10/25 11:30:27;;;;;;;3.72;3.63;;;;;;;26.46;44.54;96164.22;4993740;28;20049;-58
2023/10/25 11:32:54;;;;;;;3.97;3.88;;;;;;;26.18;44.85;96163.03;4984397;28;20081;-60
2023/10/25 11:35:30;;;;;;;3.92;3.83;;;;;;;26.25;44.74;96157.75;5002504;28;20057;-62
2023/10/25 11:37:58;;;;;;;3.78;3.67;;;;;;;25.72;44.58;96028.72;5000103;28;20232;-57
2023/10/25 11:40:45;;;;;;;3.90;3.80;;;;;;;26.76;43.55;96160.00;5003224;28;20053;-57